createdAt,value
2022-08-18T00:02:43.495Z,5.63
2022-08-18T00:07:58.599Z,5.75
2022-08-18T00:13:04.264Z,6.53
2022-08-18T00:18:08.260Z,5.20
2022-08-18T00:23:13.566Z,4.40
2022-08-18T00:28:19.548Z,4.68
2022-08-18T00:33:28.537Z,5.43
2022-08-18T00:38:32.610Z,5.30
2022-08-18T00:43:50.104Z,6.15
2022-08-18T00:48:54.203Z,5.20
2022-08-18T00:54:03.373Z,5.60
2022-08-18T00:59:12.980Z,5.38
2022-08-18T01:04:22.000Z,5.68
2022-08-18T01:14:31.193Z,5.38
2022-08-18T01:19:52.929Z,5.45
2022-08-18T01:25:18.245Z,5.50
2022-08-18T01:30:25.596Z,5.28
2022-08-18T01:35:30.084Z,5.32
2022-08-18T01:41:17.511Z,6.15
2022-08-18T01:46:11.790Z,5.70
2022-08-18T01:51:16.822Z,5.80
2022-08-18T01:56:22.477Z,5.22
2022-08-18T02:01:36.487Z,5.22
2022-08-18T02:06:42.356Z,5.82
2022-08-18T02:11:56.000Z,6.40
2022-08-18T02:17:02.869Z,5.47
2022-08-18T02:22:09.413Z,5.45
2022-08-18T02:27:16.619Z,5.00
2022-08-18T02:32:20.808Z,5.50
2022-08-18T02:37:24.891Z,4.53
2022-08-18T02:42:31.209Z,6.93
2022-08-18T02:47:35.481Z,6.07
2022-08-18T02:52:40.766Z,5.97
2022-08-18T02:57:48.996Z,6.07
2022-08-18T03:02:54.575Z,5.80
2022-08-18T03:07:59.838Z,6.15
2022-08-18T03:13:07.898Z,6.75
2022-08-18T03:18:12.369Z,6.80
2022-08-18T03:23:16.803Z,7.28
2022-08-18T03:28:22.628Z,5.97
2022-08-18T03:33:26.649Z,6.65
2022-08-18T03:38:30.696Z,6.57
2022-08-18T03:43:50.661Z,6.15
2022-08-18T03:48:58.978Z,7.13
2022-08-18T03:54:04.819Z,6.40
2022-08-18T03:59:12.959Z,7.22
2022-08-18T04:04:20.448Z,6.53
2022-08-18T04:09:28.569Z,7.25
2022-08-18T04:14:34.008Z,7.13
2022-08-18T04:19:38.143Z,6.20
2022-08-18T04:24:42.724Z,8.00
2022-08-18T04:29:51.576Z,7.15
2022-08-18T04:34:55.930Z,7.35
2022-08-18T04:40:02.460Z,7.20
2022-08-18T04:45:08.888Z,8.48
2022-08-18T04:50:13.240Z,11.25
2022-08-18T04:55:17.222Z,7.88
2022-08-18T05:00:23.416Z,7.00
2022-08-18T05:05:27.951Z,7.22
2022-08-18T05:10:32.463Z,6.13
2022-08-18T05:15:59.355Z,5.82
2022-08-18T05:21:02.723Z,6.28
2022-08-18T05:26:11.116Z,6.70
2022-08-18T05:31:19.200Z,5.93
2022-08-18T05:36:47.356Z,5.82
2022-08-18T05:41:55.389Z,5.82
2022-08-18T05:47:06.774Z,5.17
2022-08-18T05:52:17.146Z,4.80
2022-08-18T05:57:23.481Z,5.28
2022-08-18T06:02:34.852Z,6.43
2022-08-18T06:07:46.939Z,5.18
2022-08-18T06:12:55.477Z,4.00
2022-08-18T06:18:20.380Z,4.82
2022-08-18T06:23:34.379Z,6.03
2022-08-18T06:28:52.886Z,4.40
2022-08-18T06:34:10.485Z,4.13
2022-08-18T06:39:24.362Z,4.07
2022-08-18T06:44:35.168Z,4.55
2022-08-18T06:49:47.159Z,4.38
2022-08-18T06:54:51.896Z,4.65
2022-08-18T06:59:58.730Z,4.25
2022-08-18T07:05:08.131Z,3.70
2022-08-18T07:10:33.958Z,4.65
2022-08-18T07:15:38.383Z,4.10
2022-08-18T07:20:49.974Z,3.67
2022-08-18T07:26:03.398Z,3.42
2022-08-18T07:31:37.896Z,3.92
2022-08-18T07:36:50.431Z,3.95
2022-08-18T07:42:00.667Z,3.50
2022-08-18T07:47:09.506Z,3.13
2022-08-18T07:52:44.577Z,3.85
2022-08-18T07:57:51.855Z,4.10
2022-08-18T08:03:23.789Z,4.05
2022-08-18T08:08:36.939Z,3.80
2022-08-18T08:14:01.646Z,3.38
2022-08-18T08:19:16.639Z,3.17
2022-08-18T08:24:33.173Z,3.45
2022-08-18T08:29:44.109Z,3.22
2022-08-18T08:34:53.799Z,3.50
2022-08-18T08:40:08.530Z,3.55
2022-08-18T08:45:17.728Z,3.00
2022-08-18T08:50:26.375Z,3.15
2022-08-18T08:55:35.337Z,3.47
2022-08-18T09:00:42.280Z,3.33
2022-08-18T09:05:57.130Z,2.92
2022-08-18T09:11:53.608Z,3.20
2022-08-18T09:17:13.829Z,3.58
2022-08-18T09:22:31.208Z,3.42
2022-08-18T09:28:09.289Z,3.17
2022-08-18T09:33:21.558Z,3.28
2022-08-18T09:38:48.473Z,3.40
2022-08-18T09:49:51.105Z,2.78
2022-08-18T09:50:38.284Z,3.60
2022-08-18T09:55:01.280Z,3.25
2022-08-18T10:00:30.481Z,3.33
2022-08-18T10:05:37.709Z,3.25
2022-08-18T10:11:02.401Z,3.85
2022-08-18T10:16:23.879Z,3.15
2022-08-18T10:21:31.082Z,3.58
2022-08-18T10:32:54.072Z,3.63
2022-08-18T10:37:59.053Z,4.07
2022-08-18T10:43:45.171Z,3.17
2022-08-18T10:48:43.548Z,3.22
2022-08-18T10:53:52.405Z,3.33
2022-08-18T10:59:19.516Z,3.35
2022-08-18T11:04:38.917Z,3.42
2022-08-18T11:09:50.745Z,3.60
2022-08-18T11:15:21.157Z,3.47
2022-08-18T11:20:32.768Z,2.95
2022-08-18T11:25:40.071Z,3.33
2022-08-18T11:30:49.893Z,4.17
2022-08-18T11:36:01.171Z,4.00
2022-08-18T11:41:17.229Z,3.38
2022-08-18T11:46:31.959Z,4.22
2022-08-18T11:51:41.071Z,3.70
2022-08-18T11:56:48.655Z,3.95
2022-08-18T12:07:05.238Z,4.15
2022-08-18T12:12:19.318Z,3.70
2022-08-18T12:17:25.955Z,3.05
2022-08-18T12:22:46.309Z,3.40
2022-08-18T12:27:50.751Z,3.27
2022-08-18T12:33:00.818Z,2.63
2022-08-18T12:38:13.878Z,3.33
2022-08-18T12:43:18.811Z,3.47
2022-08-18T12:48:24.529Z,3.35
2022-08-18T12:53:57.913Z,3.63
2022-08-18T12:59:15.680Z,3.15
2022-08-18T13:04:26.993Z,3.43
2022-08-18T13:09:52.669Z,3.22
2022-08-18T13:14:58.810Z,3.65
2022-08-18T13:20:15.630Z,3.80
2022-08-18T13:25:46.968Z,3.55
2022-08-18T13:30:51.862Z,3.80
2022-08-18T13:35:57.164Z,3.25
2022-08-18T13:41:15.707Z,3.30
2022-08-18T13:46:31.290Z,3.40
2022-08-18T13:51:39.531Z,3.50
2022-08-18T13:56:59.035Z,3.47
2022-08-18T14:02:10.887Z,3.35
2022-08-18T14:07:19.118Z,3.72
2022-08-18T14:12:33.380Z,2.83
2022-08-18T14:17:38.675Z,3.17
2022-08-18T14:23:00.678Z,3.38
2022-08-18T14:28:06.373Z,3.10
2022-08-18T14:33:11.769Z,2.88
2022-08-18T14:38:16.537Z,2.83
2022-08-18T14:43:24.988Z,2.88
2022-08-18T14:48:31.771Z,2.30
2022-08-18T14:53:51.347Z,2.80
2022-08-18T14:59:02.275Z,3.33
2022-08-18T15:04:19.322Z,2.90
2022-08-18T15:09:28.754Z,3.22
2022-08-18T15:14:37.485Z,3.05
2022-08-18T15:20:00.381Z,2.95
2022-08-18T15:25:24.018Z,2.25
2022-08-18T15:30:33.501Z,2.95
2022-08-18T15:35:44.150Z,2.60
2022-08-18T15:40:53.820Z,2.80
2022-08-18T15:46:03.743Z,2.65
2022-08-18T15:51:11.799Z,2.38
2022-08-18T15:56:20.695Z,2.97
2022-08-18T16:01:30.231Z,3.10
2022-08-18T16:06:45.192Z,3.00
2022-08-18T16:11:51.122Z,2.90
2022-08-18T16:16:56.572Z,2.60
2022-08-18T16:22:00.984Z,3.20
2022-08-18T16:27:06.597Z,3.30
2022-08-18T16:32:16.448Z,3.38
2022-08-18T16:37:21.525Z,2.72
2022-08-18T16:42:25.573Z,3.30
2022-08-18T16:47:32.977Z,3.08
2022-08-18T16:52:38.234Z,3.00
2022-08-18T16:58:01.408Z,2.55
2022-08-18T17:03:26.065Z,2.90
2022-08-18T17:08:34.341Z,2.80
2022-08-18T17:13:40.239Z,2.78
2022-08-18T17:18:46.605Z,3.00
2022-08-18T17:23:51.785Z,4.45
2022-08-18T17:29:03.329Z,4.60
2022-08-18T17:34:15.147Z,3.50
2022-08-18T17:39:22.371Z,3.22
2022-08-18T17:44:31.497Z,3.30
2022-08-18T17:50:26.523Z,3.22
2022-08-18T17:55:28.555Z,3.13
2022-08-18T18:00:32.725Z,4.57
2022-08-18T18:05:42.939Z,3.15
2022-08-18T18:11:04.488Z,5.70
2022-08-18T18:16:24.682Z,5.28
2022-08-18T18:21:53.405Z,8.50
2022-08-18T18:26:55.431Z,6.82
2022-08-18T18:32:02.935Z,5.93
2022-08-18T18:37:29.350Z,5.95
2022-08-18T18:42:37.214Z,5.70
2022-08-18T18:47:55.992Z,4.07
2022-08-18T18:58:27.440Z,4.07
2022-08-18T19:03:37.472Z,4.22
2022-08-18T19:08:52.206Z,3.97
2022-08-18T19:14:02.786Z,3.50
2022-08-18T19:19:38.425Z,4.28
2022-08-18T19:24:52.516Z,4.32
2022-08-18T19:30:05.119Z,4.97
2022-08-18T19:35:13.295Z,3.97
2022-08-18T19:40:24.593Z,4.25
2022-08-18T19:45:36.022Z,4.00
2022-08-18T19:50:47.207Z,4.03
2022-08-18T19:56:21.636Z,4.13
2022-08-18T20:01:36.186Z,3.90
2022-08-18T20:07:10.045Z,3.65
2022-08-18T20:12:26.909Z,3.58
2022-08-18T20:17:31.305Z,3.40
2022-08-18T20:22:39.825Z,3.72
2022-08-18T20:27:50.611Z,3.40
2022-08-18T20:33:14.091Z,3.65
2022-08-18T20:38:29.387Z,3.53
2022-08-18T20:43:36.218Z,3.60
2022-08-18T20:49:06.234Z,4.00
2022-08-18T20:54:32.609Z,4.13
2022-08-18T20:59:44.908Z,3.90
2022-08-18T21:04:51.357Z,4.30
2022-08-18T21:09:59.230Z,4.03
2022-08-18T21:15:10.834Z,3.78
2022-08-18T21:20:17.449Z,3.70
2022-08-18T21:25:21.587Z,3.67
2022-08-18T21:30:28.491Z,3.83
2022-08-18T21:35:34.771Z,4.10
2022-08-18T21:40:41.214Z,3.30
2022-08-18T21:45:59.145Z,3.67
2022-08-18T21:51:03.223Z,4.25
2022-08-18T21:56:08.938Z,4.18
2022-08-18T22:01:21.885Z,3.88
2022-08-18T22:06:37.356Z,4.32
2022-08-18T22:12:01.069Z,4.53
2022-08-18T22:17:29.453Z,3.80
2022-08-18T22:22:53.942Z,3.72
2022-08-18T22:28:00.643Z,3.70
2022-08-18T22:33:06.258Z,4.28
2022-08-18T22:38:12.684Z,4.05
2022-08-18T22:43:18.925Z,3.97
2022-08-18T22:48:24.292Z,4.38
2022-08-18T22:53:28.721Z,3.63
2022-08-18T22:58:33.186Z,3.67
2022-08-18T23:03:42.027Z,4.15
2022-08-18T23:08:55.345Z,5.32
2022-08-18T23:14:02.504Z,4.18
2022-08-18T23:19:07.926Z,4.60
2022-08-18T23:24:15.178Z,4.35
2022-08-18T23:29:20.070Z,3.88
2022-08-18T23:34:27.346Z,3.97
2022-08-18T23:39:33.667Z,4.35
2022-08-18T23:44:37.678Z,3.90
2022-08-18T23:49:43.036Z,4.13
2022-08-18T23:54:47.262Z,3.85
2022-08-18T23:59:51.333Z,4.18
